Time;durP1;ratioP1;P1;durP2;ratioP2;P2;SDS_P1;SDS_P2;PMS_P1;PMS_P2;Temp;Humidity;BMP_temperature;BMP_pressure;BME280_temperature;BME280_humidity;BME280_pressure;Samples;Min_cycle;Max_cycle;Signal;HPM_P1;HPM_P2
2024/03/17 00:00:21;;;;;;;5.33;2.03;;;;;;;7.29;70.43;100376.56;5073907;28;20212;-66
2024/03/17 00:02:48;;;;;;;5.03;1.60;;;;;;;7.24;71.08;100379.94;5068587;28;20205;-61
2024/03/17 00:05:14;;;;;;;6.67;1.80;;;;;;;7.20;71.13;100383.34;5081116;28;20594;-67
2024/03/17 00:07:43;;;;;;;9.17;2.30;;;;;;;7.19;71.31;100380.78;5070663;28;20220;-67
2024/03/17 00:10:10;;;;;;;5.90;1.80;;;;;;;7.18;72.19;100386.72;5070446;28;20641;-66
2024/03/17 00:12:37;;;;;;;2.83;1.40;;;;;;;7.16;71.95;100383.31;5071986;28;20209;-64
2024/03/17 00:15:04;;;;;;;4.33;1.80;;;;;;;7.14;71.10;100385.00;5072909;28;20200;-63
2024/03/17 00:17:31;;;;;;;3.63;1.63;;;;;;;7.13;71.52;100379.00;5069649;28;20205;-65
2024/03/17 00:20:01;;;;;;;5.80;1.53;;;;;;;7.14;70.87;100383.31;5074062;28;20209;-63
2024/03/17 00:22:28;;;;;;;5.60;2.00;;;;;;;7.15;70.68;100385.03;5074596;28;20213;-67
2024/03/17 00:24:56;;;;;;;6.13;1.50;;;;;;;7.14;71.22;100385.88;5073940;28;20204;-62
2024/03/17 00:27:23;;;;;;;3.93;1.50;;;;;;;7.14;71.17;100387.56;5072830;28;20695;-66
2024/03/17 00:29:49;;;;;;;5.30;1.40;;;;;;;7.13;69.29;100390.97;5073127;28;20209;-63
2024/03/17 00:32:17;;;;;;;4.73;1.90;;;;;;;7.07;70.38;100386.66;5068591;28;20250;-63
2024/03/17 00:34:44;;;;;;;7.17;1.83;;;;;;;7.05;70.45;100393.47;5073333;28;20203;-63
2024/03/17 00:37:11;;;;;;;9.07;1.97;;;;;;;7.07;68.77;100386.66;5077290;28;20212;-63
2024/03/17 00:39:37;;;;;;;8.13;1.60;;;;;;;7.00;66.59;100388.31;5087427;28;20211;-63
2024/03/17 00:42:05;;;;;;;3.37;1.43;;;;;;;6.97;66.67;100405.38;5075003;28;20200;-62
2024/03/17 00:44:31;;;;;;;3.63;1.40;;;;;;;7.00;67.31;100390.03;5080596;28;20221;-64
2024/03/17 00:46:58;;;;;;;5.73;1.50;;;;;;;6.93;65.11;100398.50;5074838;28;20233;-65
2024/03/17 00:49:24;;;;;;;4.50;1.80;;;;;;;6.92;64.89;100407.00;5075406;28;20663;-64
2024/03/17 00:51:51;;;;;;;6.17;1.20;;;;;;;6.86;65.09;100402.69;5076375;28;20569;-63
2024/03/17 00:54:18;;;;;;;4.83;1.80;;;;;;;6.83;63.85;100405.22;5076718;28;20208;-66
2024/03/17 00:56:45;;;;;;;7.03;1.47;;;;;;;6.78;63.11;100402.63;5071519;28;20228;-65
2024/03/17 00:59:12;;;;;;;3.90;1.57;;;;;;;6.75;64.25;100405.16;5075288;28;20211;-66
2024/03/17 01:01:39;;;;;;;6.50;1.70;;;;;;;6.74;64.50;100406.00;5072545;28;20220;-63
2024/03/17 01:04:06;;;;;;;7.80;2.00;;;;;;;6.75;64.03;100407.72;5057316;28;20217;-64
2024/03/17 01:06:32;;;;;;;7.47;1.57;;;;;;;6.74;63.42;100402.59;5069879;28;20232;-63
2024/03/17 01:08:59;;;;;;;4.63;1.80;;;;;;;6.71;64.24;100413.66;5077025;28;20279;-66
2024/03/17 01:11:25;;;;;;;4.13;1.70;;;;;;;6.73;63.87;100404.28;5064221;28;20227;-66
2024/03/17 01:13:52;;;;;;;7.40;2.00;;;;;;;6.65;63.09;100408.47;5080238;28;20208;-65
2024/03/17 01:16:20;;;;;;;5.27;1.70;;;;;;;6.60;62.16;100410.13;5071451;28;20667;-64
2024/03/17 01:18:47;;;;;;;6.57;1.90;;;;;;;6.55;63.63;100401.53;5082458;28;20223;-65
2024/03/17 01:21:13;;;;;;;4.83;1.80;;;;;;;6.48;63.22;100402.31;5074453;28;20223;-67
2024/03/17 01:23:40;;;;;;;3.93;1.63;;;;;;;6.38;64.24;100413.31;5072821;28;20205;-65
2024/03/17 01:26:06;;;;;;;6.73;1.90;;;;;;;6.34;63.17;100421.78;5076684;28;20229;-66
2024/03/17 01:28:33;;;;;;;11.63;2.23;;;;;;;6.28;63.12;100409.75;5078892;28;20212;-66
2024/03/17 01:30:59;;;;;;;5.73;1.83;;;;;;;6.25;63.70;100425.06;5068919;28;20204;-64
2024/03/17 01:33:28;;;;;;;4.37;1.40;;;;;;;6.20;64.71;100419.06;5070852;28;20281;-66
2024/03/17 01:35:54;;;;;;;7.83;1.73;;;;;;;6.16;64.69;100422.44;5072545;28;20694;-65
2024/03/17 01:38:21;;;;;;;6.33;1.47;;;;;;;6.12;64.40;100418.97;5072628;28;20302;-65
2024/03/17 01:40:47;;;;;;;10.43;1.90;;;;;;;6.15;65.13;100426.69;5072798;28;20212;-65
2024/03/17 01:43:14;;;;;;;7.10;1.60;;;;;;;6.16;64.43;100424.97;5074857;28;20216;-65
2024/03/17 01:45:40;;;;;;;6.23;1.60;;;;;;;6.15;65.00;100436.03;5074043;28;20224;-66
2024/03/17 01:48:14;;;;;;;5.23;2.13;;;;;;;6.12;65.18;100429.19;5068959;28;21038;-67
2024/03/17 01:50:43;;;;;;;5.13;1.70;;;;;;;6.12;64.49;100433.47;5069720;28;20217;-63
2024/03/17 01:53:12;;;;;;;5.03;1.70;;;;;;;6.08;64.79;100440.22;5073335;28;20208;-63
2024/03/17 01:55:39;;;;;;;8.23;1.57;;;;;;;6.02;64.23;100425.66;5073354;28;20211;-64
2024/03/17 01:58:09;;;;;;;6.83;2.03;;;;;;;5.97;64.98;100447.75;5060890;28;20209;-64
2024/03/17 02:00:36;;;;;;;5.60;1.57;;;;;;;5.94;65.17;100444.31;5066192;28;20208;-64
2024/03/17 02:03:03;;;;;;;7.80;1.67;;;;;;;5.93;65.26;100434.88;5068919;28;20201;-66
2024/03/17 02:05:29;;;;;;;6.50;1.77;;;;;;;5.91;66.08;100428.88;5048323;28;20665;-63
2024/03/17 02:07:58;;;;;;;5.90;1.57;;;;;;;5.93;65.64;100432.34;5052247;28;20251;-66
2024/03/17 02:10:25;;;;;;;7.27;1.80;;;;;;;5.94;65.65;100436.63;5058013;28;20210;-65
2024/03/17 02:12:52;;;;;;;7.43;2.17;;;;;;;5.92;65.67;100434.03;5057212;28;20232;-64
2024/03/17 02:15:19;;;;;;;9.83;1.90;;;;;;;5.89;65.47;100444.22;5051433;28;20206;-63
2024/03/17 02:17:46;;;;;;;7.17;1.90;;;;;;;5.85;65.87;100447.53;5060499;28;20213;-63
2024/03/17 02:20:13;;;;;;;10.27;2.97;;;;;;;5.82;65.76;100453.50;5061458;28;20266;-65
2024/03/17 02:22:42;;;;;;;6.30;1.80;;;;;;;5.85;66.41;100447.53;5066155;28;20204;-63
2024/03/17 02:25:08;;;;;;;7.87;1.90;;;;;;;5.86;65.85;100448.44;5057211;28;20210;-63
2024/03/17 02:27:35;;;;;;;5.97;1.67;;;;;;;5.84;66.44;100455.22;5061464;28;20243;-64
2024/03/17 02:30:01;;;;;;;5.20;1.70;;;;;;;5.83;66.27;100449.25;5062190;28;20209;-70
2024/03/17 02:32:28;;;;;;;9.80;2.03;;;;;;;5.86;66.77;100448.44;5049167;28;20287;-62
2024/03/17 02:34:54;;;;;;;5.33;1.50;;;;;;;5.87;66.22;100450.13;5051411;28;20687;-64
2024/03/17 02:37:21;;;;;;;6.67;1.70;;;;;;;5.88;65.29;100451.84;5069562;28;20676;-63
2024/03/17 02:39:49;;;;;;;5.90;1.87;;;;;;;5.86;65.16;100454.41;5060080;28;20227;-64
2024/03/17 02:42:16;;;;;;;5.23;1.37;;;;;;;5.86;65.67;100446.72;5060136;28;20600;-64
2024/03/17 02:44:43;;;;;;;6.67;1.93;;;;;;;5.82;65.95;100458.59;5062093;28;20216;-66
2024/03/17 02:47:10;;;;;;;7.33;2.23;;;;;;;5.75;65.44;100456.81;5057057;28;20723;-62
2024/03/17 02:49:37;;;;;;;6.63;1.80;;;;;;;5.65;65.29;100454.94;5059607;28;20816;-63
2024/03/17 02:52:05;;;;;;;6.17;2.00;;;;;;;5.62;65.26;100465.09;5055326;28;20671;-65
2024/03/17 02:54:32;;;;;;;7.60;1.70;;;;;;;5.59;65.60;100462.50;5058778;28;20213;-64
2024/03/17 02:57:00;;;;;;;6.53;1.50;;;;;;;5.56;65.83;100468.44;5054480;28;20592;-68
2024/03/17 02:59:27;;;;;;;6.73;1.87;;;;;;;5.53;65.61;100465.84;5051315;28;20209;-65
2024/03/17 03:01:55;;;;;;;7.40;1.80;;;;;;;5.51;65.47;100476.88;5054873;28;20213;-64
2024/03/17 03:04:22;;;;;;;8.03;2.40;;;;;;;5.50;66.29;100464.94;5054523;28;20239;-64
2024/03/17 03:06:49;;;;;;;8.13;2.20;;;;;;;5.50;66.03;100462.38;5052210;28;20248;-63
2024/03/17 03:09:21;;;;;;;7.83;2.43;;;;;;;5.51;65.67;100470.06;5042704;28;20217;-64
2024/03/17 03:11:48;;;;;;;7.80;1.90;;;;;;;5.49;66.24;100464.06;5052829;28;20213;-63
2024/03/17 03:14:17;;;;;;;7.53;1.70;;;;;;;5.49;65.79;100466.63;5052731;28;20210;-65
2024/03/17 03:16:44;;;;;;;4.70;1.40;;;;;;;5.49;65.81;100474.28;5051337;28;20201;-64
2024/03/17 03:19:11;;;;;;;5.83;2.00;;;;;;;5.51;66.31;100469.19;5051029;28;20209;-63
2024/03/17 03:21:38;;;;;;;7.27;1.97;;;;;;;5.53;66.37;100464.97;5047350;28;20353;-63
2024/03/17 03:24:05;;;;;;;5.47;1.83;;;;;;;5.56;66.02;100470.16;5042037;28;20577;-63
2024/03/17 03:26:32;;;;;;;6.00;2.10;;;;;;;5.55;65.93;100470.97;5052723;28;20236;-63
2024/03/17 03:28:58;;;;;;;7.93;2.40;;;;;;;5.54;66.38;100471.81;5054566;28;20638;-62
2024/03/17 03:31:27;;;;;;;9.53;2.03;;;;;;;5.55;66.45;100468.41;5054171;28;20205;-63
2024/03/17 03:33:56;;;;;;;7.40;2.03;;;;;;;5.54;66.03;100466.69;5052113;28;20209;-62
2024/03/17 03:36:23;;;;;;;7.77;2.47;;;;;;;5.58;67.15;100459.09;5049158;28;20210;-63
2024/03/17 03:38:50;;;;;;;6.70;2.17;;;;;;;5.58;66.96;100459.09;5041027;28;20206;-64
2024/03/17 03:41:17;;;;;;;8.37;1.90;;;;;;;5.61;66.75;100458.28;5051916;28;20220;-63
2024/03/17 03:43:46;;;;;;;4.63;1.70;;;;;;;5.58;67.26;100453.13;5044380;28;20604;-62
2024/03/17 03:46:13;;;;;;;8.07;1.97;;;;;;;5.62;67.50;100464.25;5053034;28;20229;-61
2024/03/17 03:48:42;;;;;;;6.83;2.03;;;;;;;5.63;67.38;100461.72;5052043;28;20210;-67
2024/03/17 03:51:10;;;;;;;9.20;2.47;;;;;;;5.61;67.43;100465.97;5053742;28;20228;-65
2024/03/17 03:53:38;;;;;;;5.13;1.83;;;;;;;5.59;67.69;100459.94;5049066;28;20205;-63
2024/03/17 03:56:07;;;;;;;8.60;2.23;;;;;;;5.56;68.26;100458.22;5039892;28;20580;-62
2024/03/17 03:58:35;;;;;;;7.60;2.80;;;;;;;5.50;68.57;100449.59;5070239;28;20216;-64
2024/03/17 04:01:06;;;;;;;8.57;2.30;;;;;;;5.46;69.44;100463.16;5072342;28;20220;-65
2024/03/17 04:03:33;;;;;;;6.83;2.20;;;;;;;5.43;69.18;100463.97;5077585;28;20209;-63
2024/03/17 04:06:15;;;;;;;6.77;2.80;;;;;;;5.39;69.80;100462.19;5070467;28;20205;-65
2024/03/17 04:08:43;;;;;;;7.23;2.43;;;;;;;5.40;69.97;100468.16;5062158;28;20205;-67
2024/03/17 04:11:11;;;;;;;7.07;2.23;;;;;;;5.41;69.25;100475.84;5058432;28;20686;-64
2024/03/17 04:13:38;;;;;;;6.77;2.60;;;;;;;5.40;69.79;100469.03;5079599;28;20262;-62
2024/03/17 04:16:06;;;;;;;5.57;1.80;;;;;;;5.43;69.42;100465.66;5067114;28;20578;-63
2024/03/17 04:18:34;;;;;;;7.47;2.40;;;;;;;5.43;68.29;100458.00;5073371;28;20227;-64
2024/03/17 04:21:04;;;;;;;7.03;2.53;;;;;;;5.43;68.56;100463.13;5069035;28;20205;-65
2024/03/17 04:23:32;;;;;;;8.17;2.47;;;;;;;5.44;66.76;100467.38;5059927;28;20242;-63
2024/03/17 04:26:01;;;;;;;5.17;2.30;;;;;;;5.39;67.34;100462.19;5053764;28;20220;-62
2024/03/17 04:28:29;;;;;;;6.27;1.87;;;;;;;5.39;67.44;100469.00;5054446;28;20224;-63
2024/03/17 04:31:04;;;;;;;8.67;2.20;;;;;;;5.38;66.61;100473.28;5060607;28;20680;-63
2024/03/17 04:33:31;;;;;;;5.70;2.20;;;;;;;5.36;65.18;100474.06;5072293;28;20576;-63
2024/03/17 04:35:58;;;;;;;7.03;2.20;;;;;;;5.35;65.32;100468.09;5067863;28;20231;-66
2024/03/17 04:38:25;;;;;;;7.23;2.93;;;;;;;5.29;65.32;100466.28;5070001;28;20667;-63
2024/03/17 04:41:03;;;;;;;9.03;2.40;;;;;;;5.32;65.26;100474.00;5068064;28;20233;-66
2024/03/17 04:43:31;;;;;;;9.10;2.23;;;;;;;5.28;64.55;100468.84;5069663;28;20219;-64
2024/03/17 04:46:04;;;;;;;5.30;2.20;;;;;;;5.25;64.77;100466.22;5063221;28;20582;-62
2024/03/17 04:48:31;;;;;;;9.90;2.73;;;;;;;5.24;64.88;100467.91;5068195;28;20262;-64
2024/03/17 04:50:59;;;;;;;7.47;2.37;;;;;;;5.23;64.64;100471.31;5069158;28;20258;-66
2024/03/17 04:53:26;;;;;;;6.87;1.80;;;;;;;5.22;64.95;100482.34;5071481;28;20929;-62
2024/03/17 04:56:04;;;;;;;7.90;2.37;;;;;;;5.23;64.87;100484.09;5061225;28;20598;-63
2024/03/17 04:58:31;;;;;;;9.77;2.30;;;;;;;5.25;64.90;100479.84;5068589;28;20671;-65
2024/03/17 05:00:58;;;;;;;5.93;2.20;;;;;;;5.30;65.10;100478.25;5073262;28;20273;-63
2024/03/17 05:03:25;;;;;;;5.33;2.23;;;;;;;5.36;65.17;100477.47;5072688;28;20212;-62
2024/03/17 05:06:01;;;;;;;9.97;2.17;;;;;;;5.37;64.69;100476.63;5073575;28;20552;-64
2024/03/17 05:08:28;;;;;;;4.70;2.23;;;;;;;5.37;65.00;100473.22;5063044;28;20231;-62
2024/03/17 05:10:58;;;;;;;5.33;2.40;;;;;;;5.31;65.39;100472.31;5064606;28;20212;-66
2024/03/17 05:13:27;;;;;;;8.13;2.23;;;;;;;5.36;65.81;100476.63;5063665;28;20210;-62
2024/03/17 05:15:54;;;;;;;10.63;2.40;;;;;;;5.39;65.58;100476.69;5063395;28;20668;-63
2024/03/17 05:18:22;;;;;;;6.00;2.00;;;;;;;5.41;66.41;100480.97;5061070;28;20208;-63
2024/03/17 05:20:59;;;;;;;5.43;2.07;;;;;;;5.39;66.11;100476.69;5059733;28;20209;-65
2024/03/17 05:23:27;;;;;;;6.67;2.50;;;;;;;5.39;66.80;100472.44;5071084;28;20662;-64
2024/03/17 05:25:54;;;;;;;15.77;2.60;;;;;;;5.40;68.44;100479.25;5064761;28;20216;-66
2024/03/17 05:28:21;;;;;;;7.43;1.83;;;;;;;5.39;68.72;100476.69;5066060;28;20227;-63
2024/03/17 05:30:52;;;;;;;7.87;2.33;;;;;;;5.39;69.50;100480.09;5073330;28;20216;-63
2024/03/17 05:33:19;;;;;;;6.07;2.50;;;;;;;5.38;69.66;100483.50;5070659;28;20208;-67
2024/03/17 05:35:52;;;;;;;7.30;2.43;;;;;;;5.41;70.42;100485.22;5071459;28;20279;-64
2024/03/17 05:38:19;;;;;;;8.73;3.03;;;;;;;5.41;70.55;100480.97;5070897;28;20197;-62
2024/03/17 05:40:54;;;;;;;6.07;2.60;;;;;;;5.39;70.78;100487.75;5067908;28;20579;-62
2024/03/17 05:43:22;;;;;;;8.97;2.40;;;;;;;5.30;71.43;100483.38;5062502;28;20212;-63
2024/03/17 05:45:51;;;;;;;6.97;2.80;;;;;;;5.19;71.52;100478.88;5076427;28;20213;-63
2024/03/17 05:48:18;;;;;;;10.20;2.93;;;;;;;5.16;71.54;100479.72;5061812;28;20603;-66
2024/03/17 05:50:45;;;;;;;5.37;2.33;;;;;;;5.11;72.46;100481.31;5065789;28;20217;-64
2024/03/17 05:53:12;;;;;;;5.47;2.50;;;;;;;5.20;72.75;100483.19;5062482;28;20215;-62
2024/03/17 05:55:42;;;;;;;8.73;3.47;;;;;;;5.28;72.39;100485.03;5065263;28;20212;-63
2024/03/17 05:58:09;;;;;;;5.93;2.40;;;;;;;5.39;72.21;100486.91;5053865;28;20660;-64
2024/03/17 06:00:37;;;;;;;5.10;2.83;;;;;;;5.49;70.51;100488.78;5054556;28;20209;-66
2024/03/17 06:03:06;;;;;;;10.70;3.03;;;;;;;5.59;71.15;100490.63;5046902;28;20262;-63
2024/03/17 06:05:34;;;;;;;7.53;3.03;;;;;;;5.54;69.48;100497.38;5036749;28;20228;-63
2024/03/17 06:08:02;;;;;;;5.17;2.47;;;;;;;5.36;70.30;100485.16;5052301;28;20231;-67
2024/03/17 06:10:29;;;;;;;6.03;2.70;;;;;;;5.35;69.55;100483.44;5058370;28;20210;-65
2024/03/17 06:12:57;;;;;;;6.43;2.40;;;;;;;5.44;69.53;100487.81;5051065;28;20205;-63
2024/03/17 06:15:24;;;;;;;7.00;2.60;;;;;;;5.37;68.48;100484.31;5058582;28;20213;-61
2024/03/17 06:17:52;;;;;;;5.67;2.47;;;;;;;5.45;69.80;100487.88;5041005;28;20300;-63
2024/03/17 06:20:20;;;;;;;10.70;2.83;;;;;;;5.59;67.87;100485.50;5057203;28;20714;-63
2024/03/17 06:22:48;;;;;;;6.83;2.70;;;;;;;5.70;67.67;100483.97;5059794;28;20220;-64
2024/03/17 06:25:14;;;;;;;13.47;2.77;;;;;;;5.66;66.79;100487.31;5055977;28;20212;-65
2024/03/17 06:27:42;;;;;;;7.37;2.50;;;;;;;5.40;67.34;100491.16;5055388;28;20260;-62
2024/03/17 06:30:13;;;;;;;6.33;2.57;;;;;;;5.46;67.22;100483.63;5054907;28;20210;-62
2024/03/17 06:32:41;;;;;;;7.00;2.63;;;;;;;5.54;67.13;100492.25;5050119;28;20209;-66
2024/03/17 06:35:08;;;;;;;7.23;2.90;;;;;;;5.66;65.95;100492.44;5055553;28;20209;-63
2024/03/17 06:37:36;;;;;;;4.80;2.30;;;;;;;5.79;66.01;100494.34;5055396;28;20212;-61
2024/03/17 06:40:04;;;;;;;9.43;2.80;;;;;;;5.89;64.43;100494.47;5055979;28;20683;-62
2024/03/17 06:42:31;;;;;;;8.37;3.13;;;;;;;5.79;64.30;100479.00;5057991;28;20279;-64
2024/03/17 06:44:58;;;;;;;7.73;2.50;;;;;;;5.84;64.79;100493.56;5060044;28;20204;-61
2024/03/17 06:47:25;;;;;;;9.13;2.57;;;;;;;5.88;64.12;100487.66;5058144;28;20282;-64
2024/03/17 06:49:52;;;;;;;7.03;2.40;;;;;;;5.84;64.96;100486.75;5050456;28;20262;-63
2024/03/17 06:52:19;;;;;;;8.27;3.00;;;;;;;5.69;64.97;100487.38;5055656;28;20574;-63
2024/03/17 06:54:50;;;;;;;6.93;2.60;;;;;;;5.66;66.10;100489.88;5055219;28;20209;-64
2024/03/17 06:57:17;;;;;;;12.30;2.63;;;;;;;5.72;65.16;100487.44;5070119;28;20229;-65
2024/03/17 06:59:45;;;;;;;5.17;2.20;;;;;;;5.81;66.07;100491.81;5073899;28;20659;-64
2024/03/17 07:02:17;;;;;;;7.47;2.23;;;;;;;5.88;64.42;100490.22;5073973;28;20225;-64
2024/03/17 07:04:44;;;;;;;5.33;2.50;;;;;;;5.84;64.45;100494.41;5055270;28;20213;-63
2024/03/17 07:07:12;;;;;;;6.23;2.13;;;;;;;5.90;64.99;100501.34;5071686;28;20668;-65
2024/03/17 07:09:39;;;;;;;6.37;2.43;;;;;;;6.02;65.23;100504.09;5066798;28;20273;-64
2024/03/17 07:12:08;;;;;;;6.83;2.13;;;;;;;6.03;64.51;100498.13;5078521;28;20216;-64
2024/03/17 07:14:35;;;;;;;7.47;2.03;;;;;;;6.13;64.55;100494.00;5078946;28;20212;-63
2024/03/17 07:17:03;;;;;;;8.60;2.27;;;;;;;6.22;63.64;100495.00;5072769;28;20570;-61
2024/03/17 07:19:30;;;;;;;7.63;2.27;;;;;;;6.16;64.88;100500.03;5072142;28;20268;-65
2024/03/17 07:21:57;;;;;;;6.33;2.37;;;;;;;6.07;64.27;100502.44;5070354;28;20746;-62
2024/03/17 07:24:24;;;;;;;9.00;2.50;;;;;;;6.09;64.32;100500.78;5069082;28;20216;-63
2024/03/17 07:26:51;;;;;;;5.33;2.30;;;;;;;6.17;64.78;100500.88;5075095;28;20208;-64
2024/03/17 07:29:20;;;;;;;6.80;2.17;;;;;;;6.09;64.54;100517.84;5073766;28;20220;-64
2024/03/17 07:31:47;;;;;;;10.40;2.60;;;;;;;6.10;64.86;100512.72;5074745;28;20208;-63
2024/03/17 07:34:13;;;;;;;5.90;1.80;;;;;;;6.21;64.43;100515.44;5074463;28;20205;-64
2024/03/17 07:36:40;;;;;;;7.23;2.17;;;;;;;6.20;63.45;100504.34;5077057;28;20216;-63
2024/03/17 07:39:08;;;;;;;8.30;2.27;;;;;;;6.26;63.93;100517.25;5071614;28;20200;-65
2024/03/17 07:41:34;;;;;;;4.63;2.23;;;;;;;6.24;63.05;100513.78;5071338;28;20212;-63
2024/03/17 07:44:01;;;;;;;7.43;2.23;;;;;;;6.24;64.11;100508.66;5071768;28;20208;-63
2024/03/17 07:46:30;;;;;;;6.17;1.87;;;;;;;6.39;63.52;100517.38;5073785;28;20721;-70
2024/03/17 07:48:56;;;;;;;5.87;2.40;;;;;;;6.39;63.92;100514.81;5066187;28;20232;-66
2024/03/17 07:51:23;;;;;;;3.70;1.63;;;;;;;6.37;63.08;100511.38;5081511;28;20687;-63
2024/03/17 07:53:51;;;;;;;5.13;1.93;;;;;;;6.37;63.97;100513.94;5071800;28;20220;-65
2024/03/17 07:56:20;;;;;;;4.17;2.30;;;;;;;6.25;63.75;100512.94;5075801;28;20274;-63
2024/03/17 07:58:50;;;;;;;5.67;2.30;;;;;;;6.15;64.61;100512.78;5076488;28;20204;-66
2024/03/17 08:01:17;;;;;;;4.70;2.00;;;;;;;6.15;64.12;100517.91;5074009;28;20212;-63
2024/03/17 08:03:49;;;;;;;6.83;2.33;;;;;;;6.20;64.32;100517.13;5073097;28;20224;-63
2024/03/17 08:06:17;;;;;;;7.00;2.10;;;;;;;6.23;64.18;100522.31;5073198;28;20219;-65
2024/03/17 08:08:44;;;;;;;6.47;2.23;;;;;;;6.16;64.64;100510.28;5071560;28;20229;-63
2024/03/17 08:11:11;;;;;;;7.63;2.13;;;;;;;6.16;64.75;100511.97;5071232;28;20209;-61
2024/03/17 08:13:39;;;;;;;4.37;2.20;;;;;;;6.33;64.58;100517.28;5075491;28;20703;-64
2024/03/17 08:16:08;;;;;;;6.30;2.23;;;;;;;6.40;63.47;100504.59;5076719;28;20205;-64
2024/03/17 08:18:35;;;;;;;5.03;2.30;;;;;;;6.38;63.48;100508.84;5075743;28;20212;-62
2024/03/17 08:21:06;;;;;;;7.17;2.50;;;;;;;6.41;65.00;100505.50;5075033;28;20212;-66
2024/03/17 08:23:35;;;;;;;4.47;1.80;;;;;;;6.48;63.78;100502.13;5074414;28;20594;-65
2024/03/17 08:26:03;;;;;;;3.47;2.17;;;;;;;6.63;64.25;100510.03;5075446;28;20219;-65
2024/03/17 08:28:30;;;;;;;9.93;2.13;;;;;;;6.64;63.18;100498.94;5069043;28;20236;-66
2024/03/17 08:30:59;;;;;;;4.87;2.10;;;;;;;6.70;63.88;100501.56;5074740;28;20694;-64
2024/03/17 08:33:26;;;;;;;7.97;2.23;;;;;;;6.64;63.22;100503.19;5073970;28;20212;-65
2024/03/17 08:35:55;;;;;;;5.63;2.13;;;;;;;6.53;63.05;100505.63;5068884;28;20213;-65
2024/03/17 08:38:24;;;;;;;9.60;3.23;;;;;;;6.50;63.34;100510.69;5072797;28;20208;-63
2024/03/17 08:40:51;;;;;;;4.73;2.03;;;;;;;6.57;64.47;100506.53;5073048;28;20231;-66
2024/03/17 08:43:18;;;;;;;12.50;3.03;;;;;;;6.61;63.94;100500.59;5072909;28;20708;-65
2024/03/17 08:45:45;;;;;;;4.73;2.10;;;;;;;6.69;63.16;100504.09;5083524;28;20208;-64
2024/03/17 08:48:12;;;;;;;8.60;2.20;;;;;;;6.85;63.04;100512.81;5072602;28;20731;-66
2024/03/17 08:50:40;;;;;;;6.23;2.47;;;;;;;6.91;61.40;100510.31;5072536;28;20215;-66
2024/03/17 08:53:07;;;;;;;4.73;2.13;;;;;;;6.83;60.68;100507.69;5071859;28;20208;-64
2024/03/17 08:55:35;;;;;;;6.83;2.17;;;;;;;6.88;63.03;100507.72;5073146;28;20221;-64
2024/03/17 08:58:02;;;;;;;9.80;2.73;;;;;;;7.05;61.99;100515.59;5068070;28;20201;-65
2024/03/17 09:00:30;;;;;;;7.20;2.50;;;;;;;7.09;61.31;100504.53;5073195;28;20205;-65
2024/03/17 09:02:57;;;;;;;7.87;2.23;;;;;;;7.05;61.62;100516.44;5073316;28;20204;-64
2024/03/17 09:05:24;;;;;;;8.07;2.60;;;;;;;6.94;62.47;100502.69;5068985;28;20209;-64
2024/03/17 09:07:51;;;;;;;7.57;2.60;;;;;;;6.84;62.51;100511.09;5071170;28;20216;-67
2024/03/17 09:10:18;;;;;;;6.37;2.27;;;;;;;6.72;63.39;100512.69;5073530;28;20285;-65
2024/03/17 09:12:47;;;;;;;7.17;2.90;;;;;;;6.50;64.61;100528.63;5073922;28;20216;-64
2024/03/17 09:15:14;;;;;;;7.30;2.60;;;;;;;6.27;64.84;100526.63;5066733;28;20216;-63
2024/03/17 09:17:41;;;;;;;6.33;3.03;;;;;;;6.15;66.81;100523.91;5068054;28;20209;-68
2024/03/17 09:20:12;;;;;;;11.40;3.00;;;;;;;6.01;68.51;100515.16;5072789;28;20635;-65
2024/03/17 09:22:40;;;;;;;6.47;2.70;;;;;;;5.91;68.99;100537.16;5077070;28;20218;-64
2024/03/17 09:25:08;;;;;;;5.83;3.07;;;;;;;5.75;70.84;100536.06;5072915;28;20223;-64
2024/03/17 09:27:36;;;;;;;4.93;2.23;;;;;;;5.55;74.10;100522.94;5074966;28;20219;-66
2024/03/17 09:30:09;;;;;;;6.80;2.80;;;;;;;5.51;75.03;100522.88;5073281;28;20225;-63
2024/03/17 09:32:36;;;;;;;4.43;2.10;;;;;;;5.54;74.69;100523.78;5077541;28;20213;-62
2024/03/17 09:35:03;;;;;;;4.13;1.67;;;;;;;5.58;73.42;100532.38;5067475;28;20224;-64
2024/03/17 09:37:31;;;;;;;2.77;2.07;;;;;;;5.71;73.20;100528.31;5063245;28;20582;-62
2024/03/17 09:39:59;;;;;;;4.33;1.93;;;;;;;5.68;72.16;100526.56;5072575;28;20269;-64
2024/03/17 09:42:27;;;;;;;4.27;2.23;;;;;;;5.77;74.13;100520.72;5069312;28;20209;-65
2024/03/17 09:44:56;;;;;;;4.53;1.77;;;;;;;5.95;73.13;100522.75;5076919;28;20209;-63
2024/03/17 09:47:27;;;;;;;3.77;2.13;;;;;;;5.90;69.55;100526.91;5077014;28;20220;-63
2024/03/17 09:49:55;;;;;;;5.27;1.90;;;;;;;5.96;70.95;100522.75;5071499;28;20224;-65
2024/03/17 09:52:23;;;;;;;4.93;2.07;;;;;;;6.04;70.30;100525.44;5076218;28;20224;-63
2024/03/17 09:54:58;;;;;;;2.70;1.40;;;;;;;6.17;69.85;100532.44;5076860;28;20204;-65
2024/03/17 09:57:26;;;;;;;4.27;1.87;;;;;;;6.20;69.93;100522.25;5056774;28;20240;-66
2024/03/17 09:59:54;;;;;;;2.93;1.83;;;;;;;6.39;68.04;100517.38;5056874;28;20201;-65
2024/03/17 10:02:22;;;;;;;5.47;1.90;;;;;;;6.59;68.97;100530.44;5049099;28;20202;-64
2024/03/17 10:04:51;;;;;;;4.47;1.77;;;;;;;6.70;68.03;100523.72;5048220;28;20209;-64
2024/03/17 10:07:18;;;;;;;4.40;1.97;;;;;;;6.77;65.82;100521.28;5052975;28;20217;-64
2024/03/17 10:09:45;;;;;;;6.90;1.93;;;;;;;6.84;66.73;100529.03;5052416;28;20229;-65
2024/03/17 10:12:28;;;;;;;3.67;1.73;;;;;;;6.80;64.92;100533.25;5055866;28;20205;-65
2024/03/17 10:14:58;;;;;;;5.13;2.20;;;;;;;6.64;65.19;100518.56;5049043;28;20197;-64
2024/03/17 10:17:30;;;;;;;4.20;1.87;;;;;;;6.49;65.12;100529.47;5050082;28;20213;-64
2024/03/17 10:20:16;;;;;;;4.87;1.93;;;;;;;6.36;66.83;100532.69;5053159;28;20205;-65
2024/03/17 10:22:58;;;;;;;2.70;1.57;;;;;;;6.22;66.42;100520.59;5055067;28;20216;-64
2024/03/17 10:25:25;;;;;;;2.57;1.67;;;;;;;6.07;67.36;100525.47;5049341;28;20205;-66
2024/03/17 10:27:53;;;;;;;2.83;1.40;;;;;;;5.96;67.85;100524.47;5051040;28;20214;-65
2024/03/17 10:30:21;;;;;;;3.90;1.77;;;;;;;5.88;69.05;100526.88;5050532;28;20777;-63
2024/03/17 10:32:54;;;;;;;2.03;1.63;;;;;;;5.86;69.27;100535.38;5054594;28;20585;-67
2024/03/17 10:35:31;;;;;;;3.87;1.93;;;;;;;5.81;69.31;100527.59;5050585;28;20202;-68
2024/03/17 10:38:00;;;;;;;2.17;1.63;;;;;;;5.82;70.08;100527.66;5048055;28;20578;-66
2024/03/17 10:40:29;;;;;;;5.43;1.73;;;;;;;5.90;70.12;100526.91;5046918;28;20206;-68
2024/03/17 10:42:57;;;;;;;4.37;1.83;;;;;;;5.95;70.21;100531.28;5050283;28;20579;-69
2024/03/17 10:45:24;;;;;;;5.60;2.17;;;;;;;5.91;69.79;100518.38;5044596;28;20541;-67
2024/03/17 10:47:52;;;;;;;3.80;2.30;;;;;;;5.94;69.58;100528.72;5054041;28;20209;-70
2024/03/17 10:50:21;;;;;;;4.47;2.03;;;;;;;5.99;70.22;100527.06;5049560;28;20577;-67
2024/03/17 10:52:51;;;;;;;6.03;2.07;;;;;;;6.08;69.82;100526.34;5052058;28;20688;-67
2024/03/17 10:55:24;;;;;;;5.57;2.10;;;;;;;6.15;69.90;100534.16;5050084;28;20229;-67
2024/03/17 10:57:52;;;;;;;4.13;2.00;;;;;;;6.08;70.44;100532.34;5066156;28;20245;-67
2024/03/17 11:00:22;;;;;;;3.93;2.17;;;;;;;6.10;69.96;100535.75;5072680;28;20231;-70
2024/03/17 11:02:50;;;;;;;4.53;2.20;;;;;;;6.10;68.97;100528.06;5069017;28;20258;-65
2024/03/17 11:05:23;;;;;;;4.00;2.13;;;;;;;6.13;69.05;100530.69;5072401;28;20209;-64
2024/03/17 11:07:54;;;;;;;5.33;2.03;;;;;;;6.19;68.52;100525.66;5070695;28;20204;-63
2024/03/17 11:10:23;;;;;;;3.77;1.77;;;;;;;6.14;65.64;100524.72;5070809;28;20726;-72
2024/03/17 11:12:51;;;;;;;3.50;1.53;;;;;;;6.10;66.26;100529.78;5065367;28;20250;-68
2024/03/17 11:15:41;;;;;;;2.60;1.50;;;;;;;6.07;65.27;100524.63;5070264;28;20609;-66
2024/03/17 11:18:45;;;;;;;2.67;1.63;;;;;;;6.02;65.77;100522.00;5059401;28;20213;-67
2024/03/17 11:21:25;;;;;;;3.67;2.00;;;;;;;5.99;65.22;100520.25;5071960;28;20266;-68
2024/03/17 11:24:01;;;;;;;2.90;1.50;;;;;;;6.03;65.41;100523.72;5063570;28;20212;-68
2024/03/17 11:26:31;;;;;;;2.80;1.40;;;;;;;6.11;65.49;100531.50;5066525;28;20216;-69
2024/03/17 11:29:00;;;;;;;3.00;1.20;;;;;;;6.12;63.26;100521.31;5070581;28;20236;-70
2024/03/17 11:31:40;;;;;;;1.03;0.70;;;;;;;6.18;61.27;100534.16;5065175;28;20209;-70
2024/03/17 11:34:26;;;;;;;1.20;0.60;;;;;;;6.17;60.46;100531.59;5071180;28;20221;-68
2024/03/17 11:36:53;;;;;;;0.70;0.60;;;;;;;6.13;60.72;100537.50;5070040;28;20300;-70
2024/03/17 11:39:25;;;;;;;1.23;1.03;;;;;;;6.00;61.41;100533.88;5074123;28;20316;-69